createdAt,value
2023-01-13T00:00:27.858Z,86.47
2023-01-13T00:02:55.796Z,86.35
2023-01-13T00:05:23.896Z,87.21
2023-01-13T00:07:51.903Z,86.57
2023-01-13T00:10:20.056Z,86.55
2023-01-13T00:12:48.020Z,86.02
2023-01-13T00:15:16.028Z,86.75
2023-01-13T00:17:43.845Z,86.56
2023-01-13T00:20:13.046Z,85.72
2023-01-13T00:22:41.209Z,86.51
2023-01-13T00:25:09.464Z,86.74
2023-01-13T00:27:37.354Z,86.65
2023-01-13T00:30:06.362Z,86.33
2023-01-13T00:32:34.323Z,86.22
2023-01-13T00:35:02.340Z,85.94
2023-01-13T00:37:30.268Z,85.77
2023-01-13T00:39:58.149Z,85.13
2023-01-13T00:42:44.634Z,84.82
2023-01-13T00:45:12.536Z,84.11
2023-01-13T00:47:40.411Z,83.97
2023-01-13T00:50:09.071Z,83.46
2023-01-13T00:52:37.062Z,83.42
2023-01-13T00:55:05.271Z,83.98
2023-01-13T00:57:33.076Z,83.95
2023-01-13T01:00:01.070Z,84.29
2023-01-13T01:02:28.965Z,84.57
2023-01-13T01:04:57.171Z,84.62
2023-01-13T01:07:25.003Z,84.98
2023-01-13T01:09:53.960Z,85.57
2023-01-13T01:12:21.749Z,86.21
2023-01-13T01:14:49.568Z,85.94
2023-01-13T01:17:20.307Z,86.47
2023-01-13T01:19:48.233Z,85.79
2023-01-13T01:22:16.005Z,85.28
2023-01-13T01:24:43.858Z,85.61
2023-01-13T01:27:11.748Z,85.50
2023-01-13T01:29:39.596Z,85.74
2023-01-13T01:32:07.565Z,85.50
2023-01-13T01:34:35.947Z,85.10
2023-01-13T01:37:03.903Z,85.13
2023-01-13T01:39:31.921Z,84.37
2023-01-13T01:42:18.235Z,84.65
2023-01-13T01:45:22.726Z,85.37
2023-01-13T01:56:10.281Z,85.90
2023-01-13T02:49:43.692Z,85.25
2023-01-13T03:35:12.371Z,84.89
2023-01-13T03:49:22.477Z,84.44
2023-01-13T03:55:12.185Z,84.12
2023-01-13T04:09:56.049Z,83.64
2023-01-13T04:12:50.484Z,83.34
2023-01-13T04:48:01.555Z,82.14
2023-01-13T04:50:29.996Z,82.11
2023-01-13T04:53:02.853Z,82.31
2023-01-13T04:58:14.835Z,82.19
2023-01-13T05:36:55.167Z,82.23
2023-01-13T05:39:27.728Z,82.31
2023-01-13T05:42:13.943Z,82.01
2023-01-13T05:47:32.498Z,82.60
2023-01-13T05:50:00.568Z,82.99
2023-01-13T05:52:29.344Z,83.20
2023-01-13T05:54:57.810Z,82.93
2023-01-13T05:57:25.539Z,82.63
2023-01-13T05:59:53.434Z,82.36
2023-01-13T06:02:21.461Z,81.91
2023-01-13T06:04:49.478Z,81.88
2023-01-13T06:12:40.843Z,81.40
2023-01-13T06:15:09.288Z,81.12
2023-01-13T06:17:37.253Z,81.59
2023-01-13T06:20:06.428Z,81.09
2023-01-13T06:22:40.376Z,80.81
2023-01-13T06:25:16.494Z,80.89
2023-01-13T06:27:47.023Z,80.39
2023-01-13T06:30:19.910Z,79.99
2023-01-13T06:32:53.769Z,80.05
2023-01-13T06:35:29.567Z,80.16
2023-01-13T06:38:08.990Z,79.82
2023-01-13T06:40:37.225Z,79.18
2023-01-13T06:43:17.409Z,79.24
2023-01-13T06:48:38.195Z,79.59
2023-01-13T06:51:06.236Z,78.84
2023-01-13T06:53:34.035Z,78.95
2023-01-13T06:56:11.550Z,78.49
2023-01-13T06:58:39.860Z,78.38
2023-01-13T07:01:08.109Z,78.55
2023-01-13T07:03:36.561Z,77.73
2023-01-13T07:06:06.385Z,77.03
2023-01-13T07:08:36.554Z,76.98
2023-01-13T07:11:04.893Z,77.16
2023-01-13T07:13:56.126Z,77.17
2023-01-13T07:16:28.412Z,77.74
2023-01-13T07:18:56.759Z,77.28
2023-01-13T07:21:25.003Z,77.28
2023-01-13T07:23:52.862Z,76.99
2023-01-13T07:26:20.960Z,76.79
2023-01-13T07:28:49.035Z,76.77
2023-01-13T07:31:21.092Z,77.12
2023-01-13T07:33:49.059Z,76.30
2023-01-13T07:36:16.958Z,75.73
2023-01-13T07:38:44.916Z,75.55
2023-01-13T07:41:32.926Z,74.87
2023-01-13T07:44:05.167Z,75.52
2023-01-13T07:46:34.060Z,75.25
2023-01-13T07:49:02.207Z,74.01
2023-01-13T07:51:30.528Z,73.97
2023-01-13T07:53:58.625Z,73.10
2023-01-13T07:56:26.623Z,73.52
2023-01-13T07:58:59.101Z,71.53
2023-01-13T08:01:32.206Z,71.32
2023-01-13T08:04:00.432Z,69.98
2023-01-13T08:06:28.710Z,67.98
2023-01-13T08:08:56.705Z,66.28
2023-01-13T08:11:24.609Z,65.81
2023-01-13T08:13:56.750Z,66.53
2023-01-13T08:16:49.982Z,64.56
2023-01-13T08:19:17.991Z,63.04
2023-01-13T08:21:51.245Z,63.95
2023-01-13T08:24:19.253Z,63.70
2023-01-13T08:26:49.661Z,62.70
2023-01-13T08:29:17.767Z,62.18
2023-01-13T08:31:45.973Z,62.42
2023-01-13T08:34:13.937Z,62.68
2023-01-13T08:36:42.082Z,61.71
2023-01-13T08:39:10.179Z,63.46
2023-01-13T08:41:56.218Z,64.03
2023-01-13T08:44:28.978Z,62.93
2023-01-13T08:46:57.579Z,61.83
2023-01-13T08:49:26.231Z,62.33
2023-01-13T08:51:54.611Z,61.74
2023-01-13T08:54:22.686Z,62.01
2023-01-13T08:56:50.640Z,60.12
2023-01-13T08:59:20.349Z,58.36
2023-01-13T09:01:48.647Z,60.09
2023-01-13T09:04:20.294Z,59.13
2023-01-13T09:06:48.557Z,57.56
2023-01-13T09:09:16.731Z,58.76
2023-01-13T09:12:06.296Z,59.30
2023-01-13T09:14:39.443Z,58.21
2023-01-13T09:17:08.255Z,58.23
2023-01-13T09:19:36.743Z,58.12
2023-01-13T09:22:05.218Z,57.20
2023-01-13T09:24:33.267Z,57.37
2023-01-13T09:27:02.106Z,57.89
2023-01-13T09:29:30.037Z,58.17
2023-01-13T09:31:58.566Z,59.26
2023-01-13T09:34:44.872Z,61.32
2023-01-13T09:37:13.100Z,62.32
2023-01-13T09:39:41.164Z,62.31
2023-01-13T09:42:46.621Z,62.56
2023-01-13T09:45:21.168Z,63.51
2023-01-13T09:48:12.641Z,63.83
2023-01-13T09:51:28.372Z,65.05
2023-01-13T09:54:28.749Z,64.29
2023-01-13T09:56:57.845Z,65.06
2023-01-13T09:59:36.612Z,65.84
2023-01-13T10:02:26.791Z,66.75
2023-01-13T10:05:28.207Z,66.29
2023-01-13T10:08:03.053Z,67.02
2023-01-13T10:10:53.941Z,67.29
2023-01-13T10:13:23.697Z,67.05
2023-01-13T10:16:03.498Z,66.52
2023-01-13T10:18:34.405Z,66.76
2023-01-13T10:21:25.467Z,65.96
2023-01-13T10:24:07.768Z,66.39
2023-01-13T10:27:00.485Z,66.61
2023-01-13T10:29:30.673Z,66.79
2023-01-13T10:32:00.493Z,67.13
2023-01-13T10:34:29.276Z,67.90
2023-01-13T10:37:06.799Z,68.85
2023-01-13T10:39:46.107Z,68.41
2023-01-13T10:42:17.516Z,68.54
2023-01-13T10:44:51.584Z,68.87
2023-01-13T10:47:21.378Z,69.02
2023-01-13T10:50:06.394Z,69.61
2023-01-13T10:52:39.709Z,69.85
2023-01-13T10:55:33.705Z,69.42
2023-01-13T10:58:18.757Z,69.61
2023-01-13T11:00:49.328Z,69.23
2023-01-13T11:03:24.924Z,70.01
2023-01-13T11:06:00.696Z,70.29
2023-01-13T11:08:44.162Z,70.01
2023-01-13T11:11:33.509Z,70.13
2023-01-13T11:14:41.777Z,69.62
2023-01-13T11:17:27.939Z,69.49
2023-01-13T11:20:19.829Z,69.15
2023-01-13T11:22:51.800Z,68.88
2023-01-13T11:25:42.422Z,68.09
2023-01-13T11:28:21.167Z,68.54
2023-01-13T11:31:11.137Z,69.25
2023-01-13T11:33:45.466Z,67.83
2023-01-13T11:36:29.470Z,68.19
2023-01-13T11:39:09.472Z,68.58
2023-01-13T11:41:37.584Z,67.93
2023-01-13T11:44:19.443Z,68.04
2023-01-13T11:46:54.979Z,68.14
2023-01-13T11:49:28.041Z,69.37
2023-01-13T11:52:00.474Z,70.14
2023-01-13T11:54:31.267Z,70.07
2023-01-13T11:57:30.110Z,69.55
2023-01-13T12:00:24.306Z,68.96
2023-01-13T12:03:07.459Z,68.75
2023-01-13T12:05:42.648Z,69.01
2023-01-13T12:08:46.235Z,69.47
2023-01-13T12:11:55.779Z,69.67
2023-01-13T12:14:33.251Z,69.20
2023-01-13T12:17:02.969Z,68.77
2023-01-13T12:19:32.601Z,69.26
2023-01-13T12:22:37.200Z,69.08
2023-01-13T12:25:34.057Z,68.55
2023-01-13T12:28:14.432Z,68.51
2023-01-13T12:30:48.663Z,67.56
2023-01-13T12:33:49.387Z,67.78
2023-01-13T12:36:48.578Z,67.72
2023-01-13T12:39:48.497Z,68.15
2023-01-13T12:42:52.851Z,68.22
2023-01-13T12:45:24.930Z,68.16
2023-01-13T12:47:53.699Z,67.79
2023-01-13T12:50:24.949Z,67.12
2023-01-13T12:52:55.215Z,67.45
2023-01-13T12:55:25.564Z,67.72
2023-01-13T12:58:08.461Z,67.70
2023-01-13T13:00:42.465Z,67.72
2023-01-13T13:03:18.538Z,68.20
2023-01-13T13:06:12.149Z,67.76
2023-01-13T13:09:04.396Z,67.56
2023-01-13T13:12:01.166Z,67.55
2023-01-13T13:14:38.199Z,68.51
2023-01-13T13:17:32.011Z,69.68
2023-01-13T13:20:01.727Z,68.64
2023-01-13T13:22:43.299Z,68.54
2023-01-13T13:25:21.844Z,68.42
2023-01-13T13:28:08.244Z,67.46
2023-01-13T13:30:39.516Z,67.37
2023-01-13T13:33:39.302Z,67.53
2023-01-13T13:36:20.017Z,67.53
2023-01-13T13:39:24.625Z,67.06
2023-01-13T13:42:21.661Z,67.06
2023-01-13T13:45:10.146Z,66.34
2023-01-13T13:47:39.492Z,66.64
2023-01-13T13:50:20.722Z,66.63
2023-01-13T13:53:02.652Z,67.21
2023-01-13T13:55:30.947Z,67.32
2023-01-13T13:58:01.797Z,66.97
2023-01-13T14:00:34.960Z,67.25
2023-01-13T14:03:22.280Z,67.85
2023-01-13T14:06:02.899Z,67.73
2023-01-13T14:08:39.808Z,67.50
2023-01-13T14:11:27.979Z,67.37
2023-01-13T14:14:07.496Z,68.05
2023-01-13T14:16:38.315Z,68.24
2023-01-13T14:19:07.490Z,67.54
2023-01-13T14:21:35.569Z,67.57
2023-01-13T14:24:14.627Z,67.52
2023-01-13T14:26:42.959Z,67.83
2023-01-13T14:29:18.951Z,67.52
2023-01-13T14:31:49.156Z,67.77
2023-01-13T14:34:30.973Z,67.93
2023-01-13T14:37:03.404Z,67.39
2023-01-13T14:39:40.718Z,67.47
2023-01-13T14:42:14.638Z,67.22
2023-01-13T14:44:48.005Z,67.81
2023-01-13T14:47:28.962Z,68.37
2023-01-13T14:50:28.545Z,69.07
2023-01-13T14:52:57.680Z,68.38
2023-01-13T14:55:41.297Z,68.71
2023-01-13T14:58:25.720Z,68.82
2023-01-13T15:01:30.677Z,68.61
2023-01-13T15:04:25.214Z,69.19
2023-01-13T15:06:56.875Z,69.11
2023-01-13T15:09:28.220Z,69.22
2023-01-13T15:11:59.058Z,69.06
2023-01-13T15:14:35.104Z,69.38
2023-01-13T15:17:03.672Z,69.49
2023-01-13T15:19:32.032Z,70.38
2023-01-13T15:22:00.527Z,69.63
2023-01-13T15:24:29.083Z,69.92
2023-01-13T15:26:57.527Z,70.54
2023-01-13T15:29:26.260Z,70.41
2023-01-13T15:31:54.845Z,69.79
2023-01-13T15:34:23.309Z,70.33
2023-01-13T15:36:51.708Z,70.38
2023-01-13T15:39:20.645Z,71.22
2023-01-13T15:42:07.655Z,71.59
2023-01-13T15:44:54.893Z,71.23
2023-01-13T15:47:25.478Z,71.54
2023-01-13T15:49:55.105Z,71.65
2023-01-13T15:52:26.232Z,71.43
2023-01-13T15:55:05.920Z,72.10
2023-01-13T15:57:38.775Z,72.23
2023-01-13T16:00:30.569Z,72.38
2023-01-13T16:03:00.222Z,72.11
2023-01-13T16:05:35.377Z,71.47
2023-01-13T16:08:03.851Z,71.96
2023-01-13T16:10:33.435Z,71.87
2023-01-13T16:13:02.020Z,71.56
2023-01-13T16:15:30.469Z,72.00
2023-01-13T16:18:01.493Z,71.67
2023-01-13T16:20:42.192Z,71.87
2023-01-13T16:23:11.753Z,72.49
2023-01-13T16:25:43.406Z,71.94
2023-01-13T16:28:24.383Z,73.04
2023-01-13T16:31:05.335Z,72.55
2023-01-13T16:33:33.823Z,73.22
2023-01-13T16:36:10.493Z,73.20
2023-01-13T16:38:41.712Z,73.05
2023-01-13T16:41:10.569Z,73.51
2023-01-13T16:43:39.430Z,74.73
2023-01-13T16:46:29.616Z,75.34
2023-01-13T16:49:03.374Z,75.24
2023-01-13T16:51:32.383Z,74.85
2023-01-13T16:54:00.438Z,74.61
2023-01-13T16:56:32.433Z,73.89
2023-01-13T16:59:08.663Z,74.06
2023-01-13T17:01:39.822Z,74.35
2023-01-13T17:04:18.435Z,74.51
2023-01-13T17:07:07.446Z,73.95
2023-01-13T17:09:35.772Z,74.15
2023-01-13T17:12:05.027Z,73.98
2023-01-13T17:14:34.014Z,74.06
2023-01-13T17:17:02.335Z,74.68
2023-01-13T17:19:30.946Z,74.77
2023-01-13T17:21:59.262Z,74.82
2023-01-13T17:29:56.217Z,75.60
2023-01-13T17:32:25.180Z,75.12
2023-01-13T17:34:55.016Z,75.84
2023-01-13T17:37:34.376Z,75.74
2023-01-13T17:40:03.024Z,75.32
2023-01-13T17:42:31.707Z,76.01
2023-01-13T17:45:00.127Z,75.19
2023-01-13T17:47:28.675Z,75.03
2023-01-13T17:49:57.061Z,74.87
2023-01-13T17:52:25.374Z,75.17
2023-01-13T17:54:53.849Z,74.73
2023-01-13T17:57:22.334Z,75.06
2023-01-13T17:59:50.655Z,75.05
2023-01-13T18:02:19.642Z,74.41
2023-01-13T18:04:48.091Z,74.62
2023-01-13T18:07:16.348Z,75.35
2023-01-13T18:09:50.071Z,75.26
2023-01-13T18:12:19.074Z,75.56
2023-01-13T18:17:29.858Z,75.79
2023-01-13T18:20:26.042Z,75.60
2023-01-13T18:23:13.398Z,75.75
2023-01-13T18:26:00.132Z,75.94
2023-01-13T18:28:33.728Z,75.82
2023-01-13T18:31:02.432Z,76.04
2023-01-13T18:36:23.833Z,76.17
2023-01-13T18:41:53.731Z,75.93
2023-01-13T18:44:22.423Z,76.01
2023-01-13T18:46:50.865Z,75.82
2023-01-13T18:52:01.266Z,76.10
2023-01-13T18:54:29.511Z,76.15
2023-01-13T18:56:57.884Z,76.51
2023-01-13T18:59:26.696Z,76.33
2023-01-13T19:01:55.528Z,76.52
2023-01-13T19:04:24.244Z,76.42
2023-01-13T19:06:52.734Z,76.33
2023-01-13T19:09:25.299Z,76.30
2023-01-13T19:11:54.808Z,76.84
2023-01-13T19:14:37.779Z,77.12
2023-01-13T19:17:12.431Z,76.64
2023-01-13T19:19:44.163Z,76.75
2023-01-13T19:22:15.349Z,76.35
2023-01-13T19:24:44.067Z,76.96
2023-01-13T19:27:14.906Z,76.14
2023-01-13T19:29:50.403Z,76.50
2023-01-13T19:32:22.413Z,76.20
2023-01-13T19:34:51.577Z,76.25
2023-01-13T19:37:19.917Z,76.76
2023-01-13T19:39:48.230Z,76.89
2023-01-13T19:42:35.787Z,76.21
2023-01-13T19:45:23.060Z,76.39
2023-01-13T19:47:51.655Z,76.59
2023-01-13T19:50:20.101Z,76.65
2023-01-13T19:52:48.650Z,77.29
2023-01-13T19:55:17.187Z,77.59
2023-01-13T19:57:45.862Z,77.84
2023-01-13T20:00:18.785Z,78.20
2023-01-13T20:02:49.785Z,78.20
2023-01-13T20:05:26.187Z,78.03
2023-01-13T20:07:54.861Z,78.51
2023-01-13T20:10:24.959Z,78.67
2023-01-13T20:12:53.412Z,78.02
2023-01-13T20:15:22.423Z,78.14
2023-01-13T20:17:51.115Z,78.15
2023-01-13T20:20:20.838Z,77.69
2023-01-13T20:22:50.203Z,77.43
2023-01-13T20:25:19.139Z,77.62
2023-01-13T20:27:48.592Z,78.07
2023-01-13T20:30:17.517Z,77.76
2023-01-13T20:32:45.872Z,77.73
2023-01-13T20:35:15.106Z,77.55
2023-01-13T20:37:43.892Z,77.37
2023-01-13T20:40:15.285Z,77.24
2023-01-13T20:42:47.129Z,76.95
2023-01-13T20:45:20.747Z,77.34
2023-01-13T20:47:49.354Z,77.34
2023-01-13T20:50:18.079Z,77.31
2023-01-13T20:52:46.831Z,77.35
2023-01-13T20:55:15.556Z,77.43
2023-01-13T20:57:43.991Z,77.89
2023-01-13T21:00:13.226Z,77.92
2023-01-13T21:02:42.242Z,77.59
2023-01-13T21:05:10.707Z,77.91
2023-01-13T21:07:39.148Z,77.46
2023-01-13T21:10:08.407Z,77.62
2023-01-13T21:12:55.387Z,77.22
2023-01-13T21:15:24.406Z,77.70
2023-01-13T21:18:11.243Z,77.94
2023-01-13T21:20:39.839Z,77.78
2023-01-13T21:23:11.033Z,77.78
2023-01-13T21:25:40.685Z,78.32
2023-01-13T21:28:13.815Z,78.27
2023-01-13T21:30:42.424Z,78.34
2023-01-13T21:33:14.490Z,77.86
2023-01-13T21:35:43.066Z,77.87
2023-01-13T21:38:12.403Z,78.33
2023-01-13T21:40:40.834Z,78.35
2023-01-13T21:43:31.240Z,78.30
2023-01-13T21:46:17.969Z,78.87
2023-01-13T21:48:46.186Z,78.87
2023-01-13T21:51:14.067Z,78.86
2023-01-13T21:53:42.079Z,78.75
2023-01-13T21:56:10.385Z,78.91
2023-01-13T21:58:39.313Z,78.81
2023-01-13T22:01:10.134Z,78.77
2023-01-13T22:03:59.603Z,78.46
2023-01-13T22:06:28.552Z,78.10
2023-01-13T22:09:00.093Z,78.00
2023-01-13T22:11:29.348Z,78.17
2023-01-13T22:14:10.449Z,78.42
2023-01-13T22:16:49.255Z,78.63
2023-01-13T22:19:18.936Z,79.04
2023-01-13T22:21:46.976Z,80.29
2023-01-13T22:24:15.218Z,79.62
2023-01-13T22:26:43.478Z,79.12
2023-01-13T22:29:11.330Z,79.29
2023-01-13T22:31:40.266Z,78.96
2023-01-13T22:34:08.583Z,78.98
2023-01-13T22:36:36.484Z,78.31
2023-01-13T22:39:05.250Z,78.92
2023-01-13T22:41:33.240Z,79.29
2023-01-13T22:44:01.169Z,79.11
2023-01-13T22:46:29.280Z,79.92
2023-01-13T22:48:57.203Z,80.92
2023-01-13T22:51:26.835Z,80.92
2023-01-13T22:53:55.038Z,80.40
2023-01-13T22:56:25.652Z,81.44
2023-01-13T22:58:55.493Z,82.11
2023-01-13T23:01:25.130Z,81.40
2023-01-13T23:03:53.588Z,81.28
2023-01-13T23:06:24.157Z,81.02
2023-01-13T23:08:52.731Z,81.00
2023-01-13T23:11:24.204Z,81.00
2023-01-13T23:13:57.780Z,81.35
2023-01-13T23:16:27.146Z,80.98
2023-01-13T23:18:55.186Z,81.01
2023-01-13T23:21:26.551Z,80.43
2023-01-13T23:23:55.606Z,80.17
2023-01-13T23:26:24.329Z,79.48
2023-01-13T23:28:52.247Z,79.66
2023-01-13T23:31:22.330Z,80.06
2023-01-13T23:33:50.409Z,79.88
2023-01-13T23:36:24.420Z,79.60
2023-01-13T23:38:53.295Z,79.53
2023-01-13T23:41:24.739Z,79.54
2023-01-13T23:43:54.284Z,80.07
2023-01-13T23:46:23.167Z,80.19
2023-01-13T23:48:51.968Z,79.85
2023-01-13T23:51:21.540Z,79.38
2023-01-13T23:53:50.773Z,79.29
2023-01-13T23:56:27.975Z,79.07
2023-01-13T23:58:57.244Z,79.02
